Time;durP1;ratioP1;P1;durP2;ratioP2;P2;SDS_P1;SDS_P2;PMS_P1;PMS_P2;Temp;Humidity;BMP_temperature;BMP_pressure;BME280_temperature;BME280_humidity;BME280_pressure;Samples;Min_cycle;Max_cycle;Signal;HPM_P1;HPM_P2
2023/09/20 00:00:24;;;;;;;4.22;1.15;;;18.80;99.90;;;;;;5022430;28;20071;-74
2023/09/20 00:02:50;;;;;;;2.00;0.90;;;18.70;99.90;;;;;;5022334;28;20032;-74
2023/09/20 00:05:17;;;;;;;2.75;1.42;;;18.60;99.90;;;;;;5022372;28;20021;-74
2023/09/20 00:07:43;;;;;;;2.95;1.40;;;18.50;99.90;;;;;;5022573;28;20030;-74
2023/09/20 00:10:12;;;;;;;4.72;1.33;;;18.40;99.90;;;;;;5022154;28;20022;-74
2023/09/20 00:12:39;;;;;;;1.30;0.88;;;18.40;99.90;;;;;;5022473;28;20079;-74
2023/09/20 00:15:05;;;;;;;4.97;1.08;;;18.40;99.90;;;;;;5039566;28;20108;-74
2023/09/20 00:17:34;;;;;;;2.53;1.40;;;18.40;99.90;;;;;;5039268;28;20109;-74
2023/09/20 00:20:10;;;;;;;2.00;1.10;;;18.40;99.90;;;;;;5039643;28;20020;-74
2023/09/20 00:22:37;;;;;;;5.45;1.63;;;18.30;99.90;;;;;;5022725;28;20025;-73
2023/09/20 00:25:02;;;;;;;2.78;1.10;;;18.10;99.90;;;;;;5022518;28;20017;-74
2023/09/20 00:27:29;;;;;;;2.92;1.00;;;18.10;99.90;;;;;;5021866;28;20040;-74
2023/09/20 00:29:54;;;;;;;6.97;1.60;;;18.00;99.90;;;;;;5039225;28;20025;-74
2023/09/20 00:32:21;;;;;;;1.77;1.00;;;18.00;99.90;;;;;;5021985;28;20025;-74
2023/09/20 00:34:46;;;;;;;3.75;0.93;;;17.90;99.90;;;;;;5021495;28;20029;-74
2023/09/20 00:37:12;;;;;;;5.43;1.60;;;17.80;99.90;;;;;;5021594;28;20071;-74
2023/09/20 00:39:38;;;;;;;1.58;1.02;;;17.70;99.90;;;;;;5021578;28;20017;-74
2023/09/20 00:42:04;;;;;;;6.68;1.10;;;17.60;99.90;;;;;;5022008;28;20022;-74
2023/09/20 00:44:30;;;;;;;5.07;1.10;;;17.60;99.90;;;;;;5038917;28;20024;-74
2023/09/20 00:46:56;;;;;;;5.40;1.17;;;17.60;99.90;;;;;;5021703;28;20112;-74
2023/09/20 00:49:22;;;;;;;5.85;0.95;;;17.70;99.90;;;;;;5021742;28;20083;-74
2023/09/20 00:51:48;;;;;;;1.88;1.23;;;17.80;99.90;;;;;;5022340;28;20062;-74
2023/09/20 00:54:15;;;;;;;6.28;1.30;;;17.90;99.90;;;;;;5021431;28;20025;-74
2023/09/20 00:56:42;;;;;;;3.10;0.95;;;17.90;99.90;;;;;;5021401;28;20033;-74
2023/09/20 00:59:09;;;;;;;3.08;1.63;;;18.00;99.90;;;;;;5038931;28;20057;-74
2023/09/20 01:01:36;;;;;;;1.98;0.90;;;18.10;99.90;;;;;;5038659;28;20021;-74
2023/09/20 01:04:02;;;;;;;2.05;0.88;;;18.00;99.90;;;;;;5020935;28;20021;-74
2023/09/20 01:06:28;;;;;;;2.60;0.90;;;17.80;99.90;;;;;;5038519;28;20021;-74
2023/09/20 01:08:55;;;;;;;3.83;1.17;;;17.80;99.90;;;;;;5021000;28;20051;-74
2023/09/20 01:11:21;;;;;;;1.40;0.93;;;17.90;99.90;;;;;;5020966;28;20029;-74
2023/09/20 01:13:47;;;;;;;4.93;0.95;;;17.90;99.90;;;;;;5020861;28;20033;-74
2023/09/20 01:16:16;;;;;;;3.10;1.33;;;17.90;99.90;;;;;;5038152;28;20026;-74
2023/09/20 01:18:44;;;;;;;1.70;0.90;;;17.80;99.90;;;;;;5020940;28;20025;-74
2023/09/20 01:21:11;;;;;;;3.08;1.15;;;17.90;99.90;;;;;;5038059;28;20026;-74
2023/09/20 01:23:38;;;;;;;4.55;1.05;;;17.80;99.90;;;;;;5020881;28;20025;-73
2023/09/20 01:26:04;;;;;;;1.95;1.27;;;17.70;99.90;;;;;;5020676;28;20026;-74
2023/09/20 01:28:30;;;;;;;3.40;1.10;;;17.70;99.90;;;;;;5038093;28;20036;-74
2023/09/20 01:30:58;;;;;;;2.80;1.20;;;17.60;99.90;;;;;;5038254;28;20029;-74
2023/09/20 01:33:24;;;;;;;11.18;1.27;;;17.60;99.90;;;;;;5038475;28;20025;-74
2023/09/20 01:35:50;;;;;;;4.68;1.13;;;17.60;99.90;;;;;;5037897;28;20032;-74
2023/09/20 01:38:15;;;;;;;3.65;1.20;;;17.60;99.90;;;;;;5020786;28;20021;-74
2023/09/20 01:40:41;;;;;;;3.85;1.17;;;17.60;99.90;;;;;;5020802;28;20017;-74
2023/09/20 01:43:06;;;;;;;2.70;1.10;;;17.70;99.90;;;;;;5021535;28;20034;-74
2023/09/20 01:45:36;;;;;;;3.55;1.20;;;17.70;99.90;;;;;;5037268;28;20095;-74
2023/09/20 01:48:06;;;;;;;2.00;1.00;;;17.70;99.90;;;;;;5038108;28;20018;-74
2023/09/20 01:50:33;;;;;;;5.60;1.17;;;17.70;99.90;;;;;;5037616;28;20033;-74
2023/09/20 01:53:00;;;;;;;1.70;1.00;;;17.70;99.90;;;;;;5020222;28;20083;-74
2023/09/20 01:55:28;;;;;;;5.20;1.15;;;17.80;99.90;;;;;;5020238;28;20116;-74
2023/09/20 01:57:58;;;;;;;3.00;1.00;;;17.80;99.90;;;;;;5020558;28;20089;-74
2023/09/20 02:00:33;;;;;;;6.20;1.20;;;17.70;99.90;;;;;;5021297;28;20029;-74
2023/09/20 02:03:34;;;;;;;3.20;1.00;;;17.80;99.90;;;;;;5020167;28;20108;-74
2023/09/20 02:05:51;;;;;;;2.47;0.93;;;17.80;99.90;;;;;;5035987;28;20064;-74
2023/09/20 02:08:18;;;;;;;3.03;1.40;;;17.80;99.90;;;;;;5019973;28;20029;-74
2023/09/20 02:10:44;;;;;;;4.07;1.10;;;17.70;99.90;;;;;;5037388;28;20079;-74
2023/09/20 02:13:10;;;;;;;3.25;1.10;;;17.80;99.90;;;;;;5037357;28;20025;-74
2023/09/20 02:15:36;;;;;;;3.70;1.15;;;17.80;99.90;;;;;;5019664;28;20026;-74
2023/09/20 02:18:05;;;;;;;4.18;1.00;;;17.60;99.90;;;;;;5037132;28;20029;-74
2023/09/20 02:20:36;;;;;;;3.13;1.08;;;17.70;99.90;;;;;;5020064;28;20051;-74
2023/09/20 02:23:04;;;;;;;4.68;1.05;;;17.60;99.90;;;;;;5037468;28;20014;-74
2023/09/20 02:25:29;;;;;;;4.68;1.00;;;17.60;99.90;;;;;;5019697;28;20040;-73
2023/09/20 02:27:57;;;;;;;2.45;1.30;;;17.50;99.90;;;;;;5037120;28;20022;-74
2023/09/20 02:30:32;;;;;;;6.07;1.63;;;17.50;99.90;;;;;;5019949;28;20021;-74
2023/09/20 02:32:59;;;;;;;3.33;1.05;;;17.60;99.90;;;;;;5037015;28;20029;-74
2023/09/20 02:35:26;;;;;;;3.05;1.00;;;17.60;99.90;;;;;;5036845;28;20101;-74
2023/09/20 02:37:53;;;;;;;3.83;0.90;;;17.70;99.90;;;;;;5020161;28;20034;-74
2023/09/20 02:40:18;;;;;;;3.40;0.90;;;17.60;99.90;;;;;;5037226;28;20022;-74
2023/09/20 02:42:47;;;;;;;3.05;0.90;;;17.60;99.90;;;;;;5019613;28;20014;-74
2023/09/20 02:45:14;;;;;;;2.85;1.00;;;17.60;99.90;;;;;;5037100;28;20026;-74
2023/09/20 02:47:40;;;;;;;2.97;0.88;;;17.50;99.90;;;;;;5019523;28;20021;-74
2023/09/20 02:50:18;;;;;;;3.67;0.82;;;17.50;99.90;;;;;;5036920;28;20028;-74
2023/09/20 02:52:45;;;;;;;2.28;0.80;;;17.50;99.90;;;;;;5020348;28;20049;-74
2023/09/20 02:55:13;;;;;;;2.13;0.95;;;17.50;99.90;;;;;;5019475;28;20029;-75
2023/09/20 02:57:39;;;;;;;1.02;0.93;;;17.40;99.90;;;;;;5021684;28;20026;-74
2023/09/20 03:00:11;;;;;;;8.60;1.30;;;17.40;99.90;;;;;;5024353;28;20026;-74
2023/09/20 03:02:36;;;;;;;4.03;1.20;;;17.20;99.90;;;;;;5040782;28;20022;-74
2023/09/20 03:05:03;;;;;;;1.73;1.00;;;17.20;99.90;;;;;;5023534;28;20027;-74
2023/09/20 03:07:28;;;;;;;4.97;1.17;;;17.20;99.90;;;;;;5023902;28;20103;-74
2023/09/20 03:09:54;;;;;;;5.03;1.10;;;17.30;99.90;;;;;;5023639;28;20021;-74
2023/09/20 03:12:19;;;;;;;3.15;1.05;;;17.40;99.90;;;;;;5023112;28;20030;-74
2023/09/20 03:14:45;;;;;;;1.27;0.85;;;17.50;99.90;;;;;;5024080;28;20029;-74
2023/09/20 03:17:12;;;;;;;2.95;1.27;;;17.50;99.90;;;;;;5023282;28;20065;-74
2023/09/20 03:19:38;;;;;;;3.95;1.38;;;17.40;99.90;;;;;;5023386;28;20030;-74
2023/09/20 03:22:06;;;;;;;3.17;1.10;;;17.40;99.90;;;;;;5023545;28;20021;-74
2023/09/20 03:24:32;;;;;;;2.97;1.05;;;17.40;99.90;;;;;;5040514;28;20013;-74
2023/09/20 03:27:01;;;;;;;3.22;1.30;;;17.40;99.90;;;;;;5023186;28;20037;-74
2023/09/20 03:29:27;;;;;;;2.42;1.17;;;17.30;99.90;;;;;;5023268;28;20021;-74
2023/09/20 03:31:53;;;;;;;6.57;1.10;;;17.20;99.90;;;;;;5023220;28;20048;-74
2023/09/20 03:34:21;;;;;;;3.95;1.17;;;17.20;99.90;;;;;;5023107;28;20100;-74
2023/09/20 03:36:47;;;;;;;4.03;1.48;;;17.20;99.90;;;;;;5022861;28;20048;-74
2023/09/20 03:39:14;;;;;;;3.53;1.20;;;17.20;99.90;;;;;;5023001;28;20033;-74
2023/09/20 03:41:40;;;;;;;2.67;1.10;;;17.10;99.90;;;;;;5022606;28;20014;-74
2023/09/20 03:44:06;;;;;;;1.25;1.10;;;17.10;99.90;;;;;;5022716;28;20026;-74
2023/09/20 03:46:35;;;;;;;3.60;1.33;;;17.20;99.90;;;;;;5022553;28;20041;-74
2023/09/20 03:49:01;;;;;;;2.75;1.20;;;17.20;99.90;;;;;;5023201;28;20040;-74
2023/09/20 03:51:27;;;;;;;3.65;1.35;;;17.00;99.90;;;;;;5023388;28;20026;-74
2023/09/20 03:53:52;;;;;;;5.35;1.67;;;16.90;99.90;;;;;;5022832;28;20060;-74
2023/09/20 03:56:18;;;;;;;3.53;1.05;;;17.00;99.90;;;;;;5022506;28;20116;-74
2023/09/20 03:58:43;;;;;;;3.97;1.55;;;17.10;99.90;;;;;;5022451;28;20117;-71
2023/09/20 04:01:09;;;;;;;5.13;1.45;;;17.20;99.90;;;;;;5022538;28;20013;-70
2023/09/20 04:03:34;;;;;;;2.85;1.65;;;17.10;99.90;;;;;;5022339;28;20071;-70
2023/09/20 04:06:01;;;;;;;2.53;1.38;;;17.10;99.90;;;;;;5022201;28;20025;-70
2023/09/20 04:08:26;;;;;;;5.28;1.50;;;17.00;99.90;;;;;;5021976;28;20053;-70
2023/09/20 04:10:52;;;;;;;4.07;1.23;;;16.90;99.90;;;;;;5022968;28;20025;-70
2023/09/20 04:13:18;;;;;;;5.68;1.20;;;16.90;99.90;;;;;;5021997;28;20037;-70
2023/09/20 04:15:44;;;;;;;5.28;1.20;;;17.00;99.90;;;;;;5022274;28;20017;-71
2023/09/20 04:18:11;;;;;;;3.35;1.20;;;17.10;99.90;;;;;;5023096;28;20017;-71
2023/09/20 04:20:37;;;;;;;8.38;1.38;;;17.10;99.90;;;;;;5022211;28;20040;-71
2023/09/20 04:23:03;;;;;;;3.60;1.02;;;17.20;99.90;;;;;;5022610;28;20026;-71
2023/09/20 04:25:29;;;;;;;5.80;1.60;;;17.10;99.90;;;;;;5022107;28;20022;-71
2023/09/20 04:27:54;;;;;;;1.83;1.15;;;17.10;99.90;;;;;;5021774;28;20025;-71
2023/09/20 04:30:20;;;;;;;2.78;1.25;;;17.10;99.90;;;;;;5022121;28;20033;-71
2023/09/20 04:32:47;;;;;;;2.42;1.30;;;17.10;99.90;;;;;;5022083;28;20033;-71
2023/09/20 04:35:13;;;;;;;3.83;1.38;;;17.20;99.90;;;;;;5021726;28;20021;-71
2023/09/20 04:37:38;;;;;;;3.92;1.55;;;17.10;99.90;;;;;;5021545;28;20030;-71
2023/09/20 04:40:07;;;;;;;3.28;1.63;;;17.10;99.90;;;;;;5022022;28;20025;-71
2023/09/20 04:42:35;;;;;;;3.22;1.23;;;17.10;99.90;;;;;;5021453;28;20029;-71
2023/09/20 04:45:06;;;;;;;1.55;1.30;;;17.10;99.90;;;;;;5021927;28;20025;-71
2023/09/20 04:47:34;;;;;;;1.98;1.05;;;17.00;99.90;;;;;;5021289;28;20022;-71
2023/09/20 04:49:59;;;;;;;2.13;1.10;;;17.00;99.90;;;;;;5021672;28;20056;-71
2023/09/20 04:52:25;;;;;;;2.60;1.08;;;17.00;99.90;;;;;;5022187;28;20076;-71
2023/09/20 04:54:52;;;;;;;2.47;1.00;;;17.00;99.90;;;;;;5021294;28;20026;-71
2023/09/20 04:57:17;;;;;;;3.53;1.20;;;17.00;99.90;;;;;;5021444;28;20057;-71
2023/09/20 04:59:45;;;;;;;3.50;1.33;;;17.00;99.90;;;;;;5022266;28;20029;-71
2023/09/20 05:02:10;;;;;;;5.68;1.33;;;17.10;99.90;;;;;;5021301;28;20019;-71
2023/09/20 05:04:36;;;;;;;5.28;1.42;;;17.00;99.90;;;;;;5021565;28;20223;-71
2023/09/20 05:07:05;;;;;;;2.03;0.90;;;17.00;99.90;;;;;;5021227;28;20036;-71
2023/09/20 05:09:32;;;;;;;3.60;1.92;;;17.00;99.90;;;;;;5021775;28;20029;-71
2023/09/20 05:11:57;;;;;;;6.22;1.45;;;17.00;99.90;;;;;;5021583;28;20060;-71
2023/09/20 05:14:23;;;;;;;5.25;1.70;;;17.00;99.90;;;;;;5021158;28;20071;-71
2023/09/20 05:16:49;;;;;;;3.47;1.30;;;17.10;99.90;;;;;;5021122;28;20036;-71
2023/09/20 05:19:16;;;;;;;2.00;1.10;;;17.00;99.90;;;;;;5020779;28;20044;-71
2023/09/20 05:21:42;;;;;;;4.78;1.45;;;17.00;99.90;;;;;;5021205;28;20022;-71
2023/09/20 05:24:07;;;;;;;1.67;1.45;;;16.90;99.90;;;;;;5021231;28;20057;-71
2023/09/20 05:26:33;;;;;;;3.90;1.45;;;16.90;99.90;;;;;;5020781;28;20079;-71
2023/09/20 05:28:58;;;;;;;3.60;1.25;;;16.80;99.90;;;;;;5020742;28;20021;-71
2023/09/20 05:31:26;;;;;;;6.15;2.30;;;16.60;99.90;;;;;;5021075;28;20078;-71
2023/09/20 05:33:52;;;;;;;5.07;1.30;;;16.50;99.90;;;;;;5020524;28;20033;-71
2023/09/20 05:36:21;;;;;;;4.20;1.52;;;16.40;99.90;;;;;;5020709;28;20124;-71
2023/09/20 05:38:48;;;;;;;5.28;1.35;;;16.30;99.90;;;;;;5020884;28;20105;-71
2023/09/20 05:41:15;;;;;;;2.95;1.63;;;16.30;99.90;;;;;;5021212;28;20028;-71
2023/09/20 05:43:42;;;;;;;2.70;1.40;;;16.20;99.90;;;;;;5020483;28;20021;-71
2023/09/20 05:46:08;;;;;;;2.63;1.00;;;16.20;99.90;;;;;;5042956;23;20147;-69
2023/09/20 05:48:34;;;;;;;4.68;1.30;;;16.20;99.90;;;;;;5037920;28;20030;-69
2023/09/20 05:51:00;;;;;;;3.50;1.30;;;16.30;99.90;;;;;;5037731;28;20022;-69
2023/09/20 05:53:26;;;;;;;1.58;0.95;;;16.30;99.90;;;;;;5038367;28;20085;-66
2023/09/20 05:55:51;;;;;;;3.67;1.40;;;16.30;99.90;;;;;;5037705;28;20083;-69
2023/09/20 05:58:17;;;;;;;2.85;1.13;;;16.40;99.90;;;;;;5037424;28;20080;-69
2023/09/20 06:00:43;;;;;;;7.47;1.27;;;16.40;99.90;;;;;;5037991;28;20025;-69
2023/09/20 06:03:11;;;;;;;3.20;1.42;;;16.20;99.90;;;;;;5037348;28;20059;-69
2023/09/20 06:05:37;;;;;;;4.05;1.30;;;16.20;99.90;;;;;;5037304;28;20082;-69
2023/09/20 06:08:04;;;;;;;4.60;1.27;;;16.30;99.90;;;;;;5037381;28;20045;-69
2023/09/20 06:10:29;;;;;;;11.32;1.45;;;16.50;99.90;;;;;;5037272;28;20101;-69
2023/09/20 06:12:55;;;;;;;4.30;1.30;;;16.60;99.90;;;;;;5020341;28;20045;-69
2023/09/20 06:15:20;;;;;;;5.00;1.40;;;16.50;99.90;;;;;;5020079;28;20017;-69
2023/09/20 06:17:49;;;;;;;4.85;1.08;;;16.60;99.90;;;;;;5037343;28;20017;-69
2023/09/20 06:20:19;;;;;;;2.67;1.33;;;16.70;99.90;;;;;;5019775;28;20022;-69
2023/09/20 06:22:46;;;;;;;2.22;1.35;;;16.80;99.90;;;;;;5020163;28;20022;-69
2023/09/20 06:25:12;;;;;;;1.85;1.00;;;16.80;99.90;;;;;;5020024;28;20053;-69
2023/09/20 06:27:39;;;;;;;4.22;1.05;;;16.90;99.90;;;;;;5020136;28;20079;-69
2023/09/20 06:30:12;;;;;;;1.83;1.10;;;16.90;99.90;;;;;;5037335;28;20026;-69
2023/09/20 06:32:38;;;;;;;3.92;1.13;;;17.10;99.90;;;;;;5020542;28;20033;-69
2023/09/20 06:35:05;;;;;;;8.55;1.30;;;17.30;99.90;;;;;;5019801;28;20030;-69
2023/09/20 06:37:31;;;;;;;1.10;0.93;;;17.40;99.90;;;;;;5036936;28;20018;-69
2023/09/20 06:39:57;;;;;;;3.97;1.08;;;17.50;99.90;;;;;;5036949;28;20026;-69
2023/09/20 06:42:26;;;;;;;6.07;1.33;;;17.50;99.90;;;;;;5036945;28;20028;-69
2023/09/20 06:44:52;;;;;;;5.55;1.63;;;17.60;99.90;;;;;;5036928;28;20026;-69
2023/09/20 06:47:18;;;;;;;2.03;1.10;;;17.60;99.90;;;;;;5036807;28;20053;-69
2023/09/20 06:49:44;;;;;;;6.03;1.73;;;17.70;99.90;;;;;;5036917;28;20025;-69
2023/09/20 06:52:11;;;;;;;6.00;1.10;;;17.80;99.90;;;;;;5019621;28;20022;-69
2023/09/20 06:54:38;;;;;;;1.73;0.82;;;17.80;99.90;;;;;;5037297;28;20057;-69
2023/09/20 06:57:04;;;;;;;3.97;1.40;;;17.80;99.90;;;;;;5036966;28;20147;-69
2023/09/20 06:59:33;;;;;;;3.00;1.42;;;17.90;99.90;;;;;;5019349;28;20017;-69
2023/09/20 07:02:02;;;;;;;5.45;1.65;;;18.00;99.90;;;;;;5036708;28;20032;-69
2023/09/20 07:04:28;;;;;;;4.35;1.23;;;18.10;99.90;;;;;;5036799;28;20025;-69
2023/09/20 07:06:55;;;;;;;2.40;1.02;;;18.10;99.90;;;;;;5019650;28;20025;-69
2023/09/20 07:09:21;;;;;;;5.25;1.50;;;18.20;99.90;;;;;;5019252;28;20049;-69
2023/09/20 07:11:48;;;;;;;8.32;1.40;;;18.30;99.90;;;;;;5036776;28;20026;-69
2023/09/20 07:14:14;;;;;;;4.68;1.50;;;18.30;99.90;;;;;;5036863;28;20026;-69
2023/09/20 07:16:40;;;;;;;6.78;1.33;;;18.30;99.90;;;;;;5019182;28;20112;-69
2023/09/20 07:19:06;;;;;;;2.75;1.40;;;18.30;99.90;;;;;;5019173;28;20029;-69
2023/09/20 07:21:37;;;;;;;3.70;1.77;;;18.30;99.90;;;;;;5020382;28;20024;-69
2023/09/20 07:24:12;;;;;;;4.25;1.00;;;18.40;99.90;;;;;;5036706;28;20029;-69
2023/09/20 07:26:44;;;;;;;3.65;0.90;;;18.40;99.90;;;;;;5036431;28;20097;-68
2023/09/20 07:29:14;;;;;;;1.67;1.13;;;18.20;99.90;;;;;;5020001;28;20030;-68
2023/09/20 07:31:40;;;;;;;4.53;1.52;;;18.10;99.90;;;;;;5036753;28;20021;-68
2023/09/20 07:34:06;;;;;;;3.25;1.50;;;18.10;99.90;;;;;;5019146;28;20094;-69
2023/09/20 07:36:36;;;;;;;11.73;1.55;;;17.90;99.90;;;;;;5019024;28;20021;-69
2023/09/20 07:39:08;;;;;;;2.97;1.30;;;17.80;99.90;;;;;;5019068;28;20018;-69
2023/09/20 07:41:34;;;;;;;;;;;17.90;99.90;;;;;;5036985;28;20013;-69
2023/09/20 07:44:00;;;;;;;4.55;1.30;;;18.00;99.90;;;;;;5021244;28;19932;-69
2023/09/20 07:46:26;;;;;;;3.17;1.60;;;18.10;99.90;;;;;;5040190;28;20029;-68
2023/09/20 07:48:52;;;;;;;5.32;1.30;;;18.10;99.90;;;;;;5022729;28;20055;-68
2023/09/20 07:51:20;;;;;;;6.38;1.30;;;18.20;99.90;;;;;;5022460;28;20116;-68
2023/09/20 07:53:53;;;;;;;4.85;1.55;;;18.30;99.90;;;;;;5040158;28;20025;-68
2023/09/20 07:56:20;;;;;;;2.38;1.95;;;18.20;99.90;;;;;;5023340;28;20119;-68
2023/09/20 07:58:45;;;;;;;2.63;1.33;;;18.20;99.90;;;;;;5040043;28;20022;-69
2023/09/20 08:01:12;;;;;;;2.72;1.48;;;18.10;99.90;;;;;;5039686;28;20022;-68
2023/09/20 08:03:39;;;;;;;3.55;1.40;;;18.20;99.90;;;;;;5039642;28;20097;-69
2023/09/20 08:06:09;;;;;;;5.78;1.75;;;18.20;99.90;;;;;;5039602;28;20025;-69
2023/09/20 08:08:35;;;;;;;3.95;1.83;;;18.30;99.90;;;;;;5039624;28;20032;-69
2023/09/20 08:11:01;;;;;;;3.20;1.58;;;18.40;99.90;;;;;;5022453;28;20057;-69
2023/09/20 08:13:26;;;;;;;2.80;1.30;;;18.50;99.90;;;;;;5039610;28;20032;-69
2023/09/20 08:15:52;;;;;;;2.88;1.83;;;18.80;99.90;;;;;;5022272;28;20030;-69
2023/09/20 08:21:03;;;;;;;4.78;2.05;;;19.20;99.90;;;;;;5039860;28;20029;-69
2023/09/20 09:02:15;;;;;;;3.63;1.27;;;20.40;99.90;;;;;;5038866;28;20072;-70
2023/09/20 09:04:53;;;;;;;4.20;1.35;;;20.50;99.90;;;;;;5038947;28;20033;-70
2023/09/20 09:07:23;;;;;;;2.67;1.13;;;20.40;99.90;;;;;;5038392;28;20033;-70
2023/09/20 09:09:52;;;;;;;4.50;1.00;;;20.40;99.90;;;;;;5021450;28;20025;-69
2023/09/20 09:12:18;;;;;;;3.78;1.05;;;20.50;99.90;;;;;;5038318;28;20099;-69
2023/09/20 09:14:48;;;;;;;1.20;1.00;;;20.50;99.90;;;;;;5038398;28;20017;-69
2023/09/20 09:17:14;;;;;;;1.40;1.00;;;20.60;99.90;;;;;;5038175;28;20025;-69
2023/09/20 09:19:40;;;;;;;1.88;1.20;;;20.60;99.90;;;;;;5038494;28;20044;-70
2023/09/20 09:22:06;;;;;;;1.80;0.88;;;20.60;99.90;;;;;;5021468;28;20061;-69
2023/09/20 09:24:47;;;;;;;7.43;1.58;;;20.70;99.90;;;;;;5021114;28;20026;-69
2023/09/20 09:27:15;;;;;;;3.22;1.20;;;20.90;99.90;;;;;;5038089;28;20025;-69
2023/09/20 09:29:44;;;;;;;1.92;1.23;;;21.00;99.90;;;;;;5038085;28;20041;-69
2023/09/20 09:32:09;;;;;;;2.05;1.20;;;21.10;99.90;;;;;;5020790;28;20074;-69
2023/09/20 09:34:37;;;;;;;4.03;1.10;;;21.00;99.90;;;;;;5020992;28;20120;-69
2023/09/20 09:37:04;;;;;;;1.83;0.90;;;21.00;99.90;;;;;;5020324;28;20036;-69
2023/09/20 09:39:29;;;;;;;3.08;1.05;;;21.00;99.90;;;;;;5037935;28;20021;-70
2023/09/20 09:41:57;;;;;;;3.15;0.88;;;21.10;99.90;;;;;;5037904;28;20033;-70
2023/09/20 09:44:22;;;;;;;7.43;1.20;;;21.30;99.90;;;;;;5037790;28;20025;-69
2023/09/20 09:46:49;;;;;;;4.40;1.23;;;21.40;99.90;;;;;;5038293;28;20184;-69
2023/09/20 09:49:18;;;;;;;1.70;1.15;;;21.50;99.90;;;;;;5037793;28;20025;-70
2023/09/20 09:51:52;;;;;;;6.85;1.17;;;21.70;99.90;;;;;;5037734;28;20071;-69
2023/09/20 09:54:19;;;;;;;2.38;1.02;;;21.90;99.90;;;;;;5037833;28;20029;-69
2023/09/20 09:56:45;;;;;;;5.70;1.00;;;21.90;99.90;;;;;;5020505;28;20104;-70
2023/09/20 09:59:11;;;;;;;2.55;1.02;;;22.00;99.90;;;;;;5020232;28;20076;-69
2023/09/20 10:01:38;;;;;;;4.55;1.00;;;22.10;99.90;;;;;;5020130;28;20025;-69
2023/09/20 10:04:07;;;;;;;3.33;1.73;;;22.10;99.90;;;;;;5020711;28;20026;-69
2023/09/20 10:06:37;;;;;;;3.60;1.05;;;22.30;99.90;;;;;;5037335;28;20022;-70
2023/09/20 10:09:08;;;;;;;6.18;1.50;;;22.30;99.90;;;;;;5037396;28;20022;-69
2023/09/20 10:11:34;;;;;;;5.57;1.38;;;22.10;99.90;;;;;;5037448;28;20028;-69
2023/09/20 10:14:01;;;;;;;2.40;1.38;;;22.00;99.90;;;;;;5020179;28;20030;-69
2023/09/20 10:16:28;;;;;;;9.65;1.42;;;22.10;99.90;;;;;;5037528;28;20017;-70
2023/09/20 10:18:53;;;;;;;3.10;1.20;;;22.50;99.90;;;;;;5037292;28;20025;-70
2023/09/20 10:21:23;;;;;;;2.22;1.08;;;22.90;99.90;;;;;;5020848;28;20118;-70
2023/09/20 10:23:59;;;;;;;8.98;1.20;;;23.00;99.90;;;;;;5037348;28;20021;-70
2023/09/20 10:26:26;;;;;;;2.53;1.10;;;23.30;99.90;;;;;;5019941;28;20057;-70
2023/09/20 10:28:57;;;;;;;4.65;1.60;;;23.20;99.90;;;;;;5020021;28;20035;-70
2023/09/20 10:31:23;;;;;;;6.50;1.40;;;23.20;99.90;;;;;;5019792;28;20049;-70
2023/09/20 10:33:55;;;;;;;2.00;1.10;;;23.30;99.90;;;;;;5037412;28;20089;-70
2023/09/20 10:36:24;;;;;;;6.25;1.30;;;23.60;99.90;;;;;;5019793;28;20032;-70
2023/09/20 10:39:18;;;;;;;3.85;1.45;;;23.30;99.90;;;;;;5020314;28;20108;-70
2023/09/20 10:41:45;;;;;;;3.90;1.35;;;23.10;99.90;;;;;;5020450;28;20025;-70
2023/09/20 10:44:28;;;;;;;2.47;1.50;;;23.30;99.90;;;;;;5019655;28;20033;-70
2023/09/20 10:46:58;;;;;;;3.25;1.20;;;23.00;99.90;;;;;;5036480;28;20049;-70
2023/09/20 10:49:54;;;;;;;2.75;1.00;;;22.70;99.90;;;;;;5019561;28;20083;-69
2023/09/20 10:52:37;;;;;;;6.30;1.38;;;22.40;99.90;;;;;;5019470;28;20026;-69
2023/09/20 10:55:16;;;;;;;3.33;1.30;;;22.40;99.90;;;;;;5036884;28;20022;-70
2023/09/20 10:57:42;;;;;;;10.13;1.50;;;22.60;99.90;;;;;;5036757;28;20085;-70
2023/09/20 11:00:08;;;;;;;2.30;0.90;;;22.70;99.90;;;;;;5020012;28;20102;-70
2023/09/20 11:02:37;;;;;;;4.22;1.10;;;23.00;99.90;;;;;;5036720;28;20041;-70
2023/09/20 11:05:06;;;;;;;2.40;1.00;;;23.20;99.90;;;;;;5036580;28;20055;-70
2023/09/20 11:07:34;;;;;;;4.50;1.13;;;23.40;99.90;;;;;;5019470;28;20052;-70
2023/09/20 11:10:02;;;;;;;2.50;1.75;;;23.50;99.90;;;;;;5019552;28;20068;-70
2023/09/20 11:12:28;;;;;;;3.75;1.30;;;23.60;99.90;;;;;;5019652;28;20083;-70
2023/09/20 11:14:54;;;;;;;1.30;0.90;;;23.50;99.90;;;;;;5019562;28;20025;-70
2023/09/20 11:17:20;;;;;;;3.08;1.25;;;23.40;99.90;;;;;;5036589;28;20035;-69
2023/09/20 11:19:47;;;;;;;1.48;0.90;;;23.20;99.90;;;;;;5022817;28;20022;-70
2023/09/20 11:22:15;;;;;;;5.40;1.08;;;23.10;99.90;;;;;;5040487;28;20017;-70
2023/09/20 11:24:42;;;;;;;6.00;1.20;;;23.10;99.90;;;;;;5023241;28;20017;-70
2023/09/20 11:27:08;;;;;;;1.52;0.85;;;23.30;99.90;;;;;;5040312;28;20037;-70
2023/09/20 11:29:40;;;;;;;3.13;0.95;;;23.50;99.90;;;;;;5040787;28;20017;-70
2023/09/20 11:32:10;;;;;;;5.72;1.30;;;23.80;99.90;;;;;;5040262;28;20017;-69
2023/09/20 11:34:44;;;;;;;3.58;1.65;;;23.90;99.90;;;;;;5040435;28;20037;-69
2023/09/20 11:37:10;;;;;;;8.15;1.92;;;23.70;99.90;;;;;;5040022;28;20025;-70
2023/09/20 11:39:35;;;;;;;2.72;0.90;;;23.40;99.90;;;;;;5023861;28;20076;-69
2023/09/20 11:42:03;;;;;;;1.00;0.80;;;23.30;99.90;;;;;;5023107;28;20112;-69
2023/09/20 11:44:35;;;;;;;2.17;0.98;;;23.30;99.90;;;;;;5022603;28;20108;-69
2023/09/20 11:47:00;;;;;;;2.92;0.75;;;23.60;99.90;;;;;;5040354;28;20079;-73
2023/09/20 11:49:27;;;;;;;4.00;1.00;;;24.30;99.90;;;;;;5022589;28;20034;-73
2023/09/20 11:51:57;;;;;;;2.45;0.90;;;24.80;99.90;;;;;;5022897;28;20033;-73
2023/09/20 11:54:29;;;;;;;1.73;0.90;;;25.30;99.90;;;;;;5040193;28;20028;-73
2023/09/20 11:56:59;;;;;;;3.05;1.13;;;25.80;99.90;;;;;;5039716;28;20029;-73
2023/09/20 11:59:24;;;;;;;5.47;1.23;;;26.10;99.90;;;;;;5039886;28;20041;-73
2023/09/20 12:01:50;;;;;;;2.05;1.15;;;26.10;99.90;;;;;;5040035;28;20252;-73
2023/09/20 12:04:16;;;;;;;3.67;1.10;;;26.10;99.90;;;;;;5022699;28;20013;-73
2023/09/20 12:06:42;;;;;;;5.88;1.20;;;26.10;99.90;;;;;;5039875;28;20056;-73
2023/09/20 12:09:09;;;;;;;2.03;0.85;;;25.80;99.90;;;;;;5039713;28;20038;-73
2023/09/20 12:11:35;;;;;;;2.55;0.93;;;25.10;99.90;;;;;;5039891;28;20056;-73
2023/09/20 12:14:01;;;;;;;3.10;1.15;;;25.00;99.90;;;;;;5039458;28;20152;-73
2023/09/20 12:16:27;;;;;;;4.07;1.25;;;25.00;99.90;;;;;;5039604;28;20056;-73
2023/09/20 12:18:58;;;;;;;1.55;1.10;;;25.00;99.90;;;;;;5022015;28;20079;-73
2023/09/20 12:21:25;;;;;;;9.57;1.20;;;25.00;99.90;;;;;;5039734;28;20014;-73
2023/09/20 12:23:51;;;;;;;1.98;1.00;;;25.20;99.90;;;;;;5039384;28;20024;-73
2023/09/20 12:26:17;;;;;;;2.42;1.10;;;25.30;99.90;;;;;;5021860;28;20029;-73
2023/09/20 12:28:44;;;;;;;2.85;1.45;;;25.50;99.90;;;;;;5039293;28;20025;-73
2023/09/20 12:31:09;;;;;;;5.10;1.10;;;26.20;99.90;;;;;;5039215;28;20101;-73
2023/09/20 12:33:35;;;;;;;2.47;1.10;;;26.80;99.90;;;;;;5021747;28;20045;-73
2023/09/20 12:36:01;;;;;;;2.60;1.17;;;26.50;99.90;;;;;;5039056;28;20025;-73
2023/09/20 12:38:29;;;;;;;2.42;1.10;;;26.50;99.90;;;;;;5039098;28;20021;-73
2023/09/20 12:40:56;;;;;;;3.50;0.90;;;26.90;99.90;;;;;;5039293;28;20026;-73
2023/09/20 12:43:22;;;;;;;2.47;1.08;;;27.10;99.90;;;;;;5021512;28;20117;-73
2023/09/20 12:45:47;;;;;;;1.10;0.82;;;27.50;99.90;;;;;;5038891;28;20053;-73
2023/09/20 12:48:13;;;;;;;1.67;0.80;;;27.40;99.90;;;;;;5021463;28;20044;-73
2023/09/20 12:50:41;;;;;;;1.88;0.88;;;27.20;99.90;;;;;;5021495;28;20025;-73
2023/09/20 12:53:08;;;;;;;1.75;1.17;;;26.70;99.90;;;;;;5038715;28;20017;-73
2023/09/20 12:55:35;;;;;;;4.18;1.05;;;26.20;99.90;;;;;;5021418;28;20025;-73
2023/09/20 12:58:01;;;;;;;5.18;1.48;;;26.00;99.90;;;;;;5021319;28;20026;-73
2023/09/20 13:00:27;;;;;;;2.85;0.90;;;26.00;99.90;;;;;;5021203;28;20075;-73
2023/09/20 13:02:53;;;;;;;2.55;0.98;;;25.90;99.90;;;;;;5038537;28;20048;-73
2023/09/20 13:05:18;;;;;;;5.55;1.38;;;25.80;99.90;;;;;;5021068;28;20038;-73
2023/09/20 13:07:44;;;;;;;2.50;1.50;;;25.70;99.90;;;;;;5021143;28;20025;-73
2023/09/20 13:10:13;;;;;;;5.15;2.20;;;26.00;99.90;;;;;;5022096;28;20021;-73
2023/09/20 13:12:40;;;;;;;3.65;1.08;;;26.40;99.90;;;;;;5038917;28;20029;-73
2023/09/20 13:15:12;;;;;;;2.83;1.58;;;26.80;99.90;;;;;;5038426;28;20021;-73
2023/09/20 13:17:39;;;;;;;3.67;1.30;;;26.90;99.90;;;;;;5021780;28;20055;-73
2023/09/20 13:20:09;;;;;;;2.05;1.10;;;27.10;99.90;;;;;;5038885;28;20032;-73
2023/09/20 13:22:36;;;;;;;4.22;1.50;;;27.80;99.90;;;;;;5024241;28;20057;-68
2023/09/20 13:25:02;;;;;;;1.65;0.98;;;28.60;99.90;;;;;;5038138;28;20095;-68
2023/09/20 13:27:27;;;;;;;6.28;1.48;;;29.20;99.90;;;;;;5020865;28;20084;-68
2023/09/20 13:29:54;;;;;;;2.42;1.08;;;29.50;99.90;;;;;;5021132;28;20029;-68